Kellerville, Illinois
Current Conditions -  °F | °C
As of 3:28 AM on Monday 24 Nov 2014 (Local Time) from KUIN Reporting Station
Light Snow Light Snow  
Wind Chill: 22°   Ceiling: 600
Heat Index: 33°   Visibility: 0.75mi
Dew Point: 31°   Wind: 18mph
Humidity: 92%   Direction: 290°WNW
Pressure: 29.32"   Gusts: 28mph
Location:  39.9716°N, 90.933°W
Report Text: KUIN 240928Z AUTO 29016G24KT 3/4SM -SN BR OVC006 01/M01 A2932 RMK AO2 RAE01SNB01 P0000 T00061006
Loading
Personal Weather Stations






























Interactive Weather Map New forecast layout! Learn more

10-Day Weather Forecast

Advertisements
Track Severe Weather on mobile